sensor_id;sensor_type;location;lat;lon;timestamp;pressure;altitude;pressure_sealevel;temperature;humidity
23307;BME280;11822;52.470;10.688;2022-10-31T00:00:11;101199.19;;;15.22;61.32
23307;BME280;11822;52.470;10.688;2022-10-31T00:02:37;101207.44;;;15.22;61.45
23307;BME280;11822;52.470;10.688;2022-10-31T00:05:02;101207.44;;;15.22;61.45
23307;BME280;11822;52.470;10.688;2022-10-31T00:07:28;101200.78;;;15.24;61.64
23307;BME280;11822;52.470;10.688;2022-10-31T00:09:53;101208.25;;;15.23;61.54
23307;BME280;11822;52.470;10.688;2022-10-31T00:12:18;101203.53;;;15.24;61.71
23307;BME280;11822;52.470;10.688;2022-10-31T00:14:43;101205.50;;;15.23;61.66
23307;BME280;11822;52.470;10.688;2022-10-31T00:17:08;101209.03;;;15.24;61.54
23307;BME280;11822;52.470;10.688;2022-10-31T00:19:33;101200.78;;;15.24;61.67
23307;BME280;11822;52.470;10.688;2022-10-31T00:21:59;101207.81;;;15.21;61.76
23307;BME280;11822;52.470;10.688;2022-10-31T00:24:24;101211.72;;;15.20;61.45
23307;BME280;11822;52.470;10.688;2022-10-31T00:26:49;101211.25;;;15.18;61.71
23307;BME280;11822;52.470;10.688;2022-10-31T00:29:14;101206.91;;;15.17;61.54
23307;BME280;11822;52.470;10.688;2022-10-31T00:31:39;101213.09;;;15.14;61.58
23307;BME280;11822;52.470;10.688;2022-10-31T00:34:05;101217.78;;;15.13;61.72
23307;BME280;11822;52.470;10.688;2022-10-31T00:36:30;101215.75;;;15.10;61.80
23307;BME280;11822;52.470;10.688;2022-10-31T00:38:55;101212.19;;;15.10;61.72
23307;BME280;11822;52.470;10.688;2022-10-31T00:41:20;101220.47;;;15.10;61.78
23307;BME280;11822;52.470;10.688;2022-10-31T00:43:45;101227.44;;;15.07;61.66
23307;BME280;11822;52.470;10.688;2022-10-31T00:46:11;101232.50;;;15.05;61.90
23307;BME280;11822;52.470;10.688;2022-10-31T00:48:36;101223.00;;;15.02;61.54
23307;BME280;11822;52.470;10.688;2022-10-31T00:51:02;101219.78;;;15.00;61.64
23307;BME280;11822;52.470;10.688;2022-10-31T00:53:27;101220.94;;;14.99;61.65
23307;BME280;11822;52.470;10.688;2022-10-31T00:55:52;101220.50;;;14.97;61.66
23307;BME280;11822;52.470;10.688;2022-10-31T00:58:17;101224.41;;;14.96;61.83
23307;BME280;11822;52.470;10.688;2022-10-31T01:00:42;101230.25;;;14.95;61.61
23307;BME280;11822;52.470;10.688;2022-10-31T01:03:08;101232.56;;;14.92;61.85
23307;BME280;11822;52.470;10.688;2022-10-31T01:05:33;101230.97;;;14.91;61.86
23307;BME280;11822;52.470;10.688;2022-10-31T01:07:58;101230.97;;;14.91;61.77
23307;BME280;11822;52.470;10.688;2022-10-31T01:10:23;101231.28;;;14.90;61.71
23307;BME280;11822;52.470;10.688;2022-10-31T01:12:49;101233.25;;;14.89;61.91
23307;BME280;11822;52.470;10.688;2022-10-31T01:15:16;101227.28;;;14.87;61.75
23307;BME280;11822;52.470;10.688;2022-10-31T01:17:42;101230.84;;;14.88;61.74
23307;BME280;11822;52.470;10.688;2022-10-31T01:20:08;101235.53;;;14.87;61.94
23307;BME280;11822;52.470;10.688;2022-10-31T01:22:33;101243.81;;;14.87;61.84
23307;BME280;11822;52.470;10.688;2022-10-31T01:24:58;101232.78;;;14.87;61.98
23307;BME280;11822;52.470;10.688;2022-10-31T01:27:24;101239.44;;;14.86;61.79
23307;BME280;11822;52.470;10.688;2022-10-31T01:29:49;101248.38;;;14.83;61.84
23307;BME280;11822;52.470;10.688;2022-10-31T01:32:14;101239.31;;;14.83;61.85
23307;BME280;11822;52.470;10.688;2022-10-31T01:34:39;101238.09;;;14.80;62.08
23307;BME280;11822;52.470;10.688;2022-10-31T01:37:05;101245.06;;;14.77;61.81
23307;BME280;11822;52.470;10.688;2022-10-31T01:39:30;101253.66;;;14.76;62.00
23307;BME280;11822;52.470;10.688;2022-10-31T01:41:55;101254.38;;;14.73;62.04
23307;BME280;11822;52.470;10.688;2022-10-31T01:50:00;101251.38;;;14.66;61.99
23307;BME280;11822;52.470;10.688;2022-10-31T01:52:10;101259.16;;;14.63;62.21
23307;BME280;11822;52.470;10.688;2022-10-31T01:54:37;101254.34;;;14.60;61.97
23307;BME280;11822;52.470;10.688;2022-10-31T01:57:04;101255.81;;;14.58;62.27
23307;BME280;11822;52.470;10.688;2022-10-31T01:59:32;101269.25;;;14.59;62.00
23307;BME280;11822;52.470;10.688;2022-10-31T02:02:00;101261.69;;;14.56;61.98
23307;BME280;11822;52.470;10.688;2022-10-31T02:04:25;101264.78;;;14.55;61.95
23307;BME280;11822;52.470;10.688;2022-10-31T02:06:53;101255.72;;;14.54;62.17
23307;BME280;11822;52.470;10.688;2022-10-31T02:09:20;101256.41;;;14.51;62.20
23307;BME280;11822;52.470;10.688;2022-10-31T02:11:52;101260.66;;;14.48;62.06
23307;BME280;11822;52.470;10.688;2022-10-31T02:14:17;101266.16;;;14.48;62.02
23307;BME280;11822;52.470;10.688;2022-10-31T02:16:43;101264.56;;;14.47;62.24
23307;BME280;11822;52.470;10.688;2022-10-31T02:19:08;101262.94;;;14.46;62.18
23307;BME280;11822;52.470;10.688;2022-10-31T02:21:48;101275.41;;;14.44;62.28
23307;BME280;11822;52.470;10.688;2022-10-31T02:27:01;101284.34;;;14.41;62.23
23307;BME280;11822;52.470;10.688;2022-10-31T02:29:37;101285.50;;;14.40;62.00
23307;BME280;11822;52.470;10.688;2022-10-31T02:32:13;101289.38;;;14.39;62.15
23307;BME280;11822;52.470;10.688;2022-10-31T02:42:33;101296.72;;;14.34;62.30
23307;BME280;11822;52.470;10.688;2022-10-31T02:45:08;101304.19;;;14.34;62.23
23307;BME280;11822;52.470;10.688;2022-10-31T02:47:36;101301.44;;;14.34;62.29
23307;BME280;11822;52.470;10.688;2022-10-31T02:50:03;101308.84;;;14.33;62.29
23307;BME280;11822;52.470;10.688;2022-10-31T02:52:31;101300.28;;;14.35;62.20
23307;BME280;11822;52.470;10.688;2022-10-31T02:54:57;101308.16;;;14.37;62.36
23307;BME280;11822;52.470;10.688;2022-10-31T02:57:26;101306.34;;;14.41;62.10
23307;BME280;11822;52.470;10.688;2022-10-31T03:00:06;101310.94;;;14.49;62.32
23307;BME280;11822;52.470;10.688;2022-10-31T03:10:21;101304.31;;;14.87;62.09
23307;BME280;11822;52.470;10.688;2022-10-31T03:12:58;101315.19;;;14.96;62.17
23307;BME280;11822;52.470;10.688;2022-10-31T03:15:27;101309.06;;;15.03;62.05
23307;BME280;11822;52.470;10.688;2022-10-31T03:18:08;101318.81;;;15.13;61.83
23307;BME280;11822;52.470;10.688;2022-10-31T03:20:38;101325.31;;;15.20;62.03
23307;BME280;11822;52.470;10.688;2022-10-31T03:23:05;101317.97;;;15.25;62.00
23307;BME280;11822;52.470;10.688;2022-10-31T03:25:31;101314.53;;;15.28;61.90
23307;BME280;11822;52.470;10.688;2022-10-31T03:27:57;101314.53;;;15.28;61.98
23307;BME280;11822;52.470;10.688;2022-10-31T03:30:24;101313.75;;;15.27;61.91
23307;BME280;11822;52.470;10.688;2022-10-31T03:32:51;101316.03;;;15.25;62.04
23307;BME280;11822;52.470;10.688;2022-10-31T03:35:17;101310.88;;;15.24;62.09
23307;BME280;11822;52.470;10.688;2022-10-31T03:37:43;101319.50;;;15.22;62.19
23307;BME280;11822;52.470;10.688;2022-10-31T03:40:10;101322.56;;;15.20;62.06
23307;BME280;11822;52.470;10.688;2022-10-31T03:42:40;101321.44;;;15.21;62.07
23307;BME280;11822;52.470;10.688;2022-10-31T03:47:32;101320.50;;;15.30;62.12
23307;BME280;11822;52.470;10.688;2022-10-31T03:49:58;101329.66;;;15.34;62.30
23307;BME280;11822;52.470;10.688;2022-10-31T03:52:28;101326.31;;;15.41;62.18
23307;BME280;11822;52.470;10.688;2022-10-31T03:54:59;101323.31;;;15.46;62.51
23307;BME280;11822;52.470;10.688;2022-10-31T03:57:29;101327.78;;;15.50;62.49
23307;BME280;11822;52.470;10.688;2022-10-31T04:00:05;101331.44;;;15.55;62.26
23307;BME280;11822;52.470;10.688;2022-10-31T04:02:32;101339.09;;;15.61;62.47
23307;BME280;11822;52.470;10.688;2022-10-31T04:04:58;101333.31;;;15.66;62.38
23307;BME280;11822;52.470;10.688;2022-10-31T04:07:25;101341.72;;;15.70;62.33
23307;BME280;11822;52.470;10.688;2022-10-31T04:09:52;101343.84;;;15.77;62.59
23307;BME280;11822;52.470;10.688;2022-10-31T04:12:18;101347.88;;;15.79;62.56
23307;BME280;11822;52.470;10.688;2022-10-31T04:14:45;101333.03;;;15.84;62.54
23307;BME280;11822;52.470;10.688;2022-10-31T04:17:12;101345.34;;;15.87;62.75
23307;BME280;11822;52.470;10.688;2022-10-31T04:19:39;101343.13;;;15.92;62.54
23307;BME280;11822;52.470;10.688;2022-10-31T04:22:04;101345.16;;;15.95;62.44
23307;BME280;11822;52.470;10.688;2022-10-31T04:24:29;101358.25;;;15.99;62.50
23307;BME280;11822;52.470;10.688;2022-10-31T04:26:55;101351.22;;;16.01;62.36
23307;BME280;11822;52.470;10.688;2022-10-31T04:29:20;101358.44;;;16.06;62.53
23307;BME280;11822;52.470;10.688;2022-10-31T04:31:45;101356.91;;;16.08;62.76
23307;BME280;11822;52.470;10.688;2022-10-31T04:34:10;101359.34;;;16.10;62.52
23307;BME280;11822;52.470;10.688;2022-10-31T04:36:35;101354.28;;;16.12;62.47
23307;BME280;11822;52.470;10.688;2022-10-31T04:39:01;101359.09;;;16.15;62.71
23307;BME280;11822;52.470;10.688;2022-10-31T04:41:26;101354.00;;;16.17;62.56
23307;BME280;11822;52.470;10.688;2022-10-31T04:43:51;101353.66;;;16.19;62.51
23307;BME280;11822;52.470;10.688;2022-10-31T04:46:16;101349.41;;;16.21;62.76
23307;BME280;11822;52.470;10.688;2022-10-31T04:48:41;101352.94;;;16.22;62.57
23307;BME280;11822;52.470;10.688;2022-10-31T04:51:07;101355.34;;;16.23;62.89
23307;BME280;11822;52.470;10.688;2022-10-31T04:53:32;101357.75;;;16.25;62.76
23307;BME280;11822;52.470;10.688;2022-10-31T04:55:58;101356.59;;;16.26;63.12
23307;BME280;11822;52.470;10.688;2022-10-31T04:58:24;101367.28;;;16.28;63.01
23307;BME280;11822;52.470;10.688;2022-10-31T05:00:52;101363.38;;;16.29;63.08
23307;BME280;11822;52.470;10.688;2022-10-31T05:03:18;101367.72;;;16.30;63.09
23307;BME280;11822;52.470;10.688;2022-10-31T05:05:43;101371.28;;;16.30;62.86
23307;BME280;11822;52.470;10.688;2022-10-31T05:08:08;101378.38;;;16.31;62.91
23307;BME280;11822;52.470;10.688;2022-10-31T05:10:33;101370.94;;;16.32;62.93
23307;BME280;11822;52.470;10.688;2022-10-31T05:12:59;101382.41;;;16.34;62.96
23307;BME280;11822;52.470;10.688;2022-10-31T05:15:25;101380.81;;;16.33;63.02
23307;BME280;11822;52.470;10.688;2022-10-31T05:17:51;101380.00;;;16.32;63.22
23307;BME280;11822;52.470;10.688;2022-10-31T05:20:17;101385.50;;;16.32;63.12
23307;BME280;11822;52.470;10.688;2022-10-31T05:22:47;101385.16;;;16.34;63.51
23307;BME280;11822;52.470;10.688;2022-10-31T05:25:12;101382.81;;;16.36;63.17
23307;BME280;11822;52.470;10.688;2022-10-31T05:27:38;101389.59;;;16.38;63.17
23307;BME280;11822;52.470;10.688;2022-10-31T05:30:04;101392.34;;;16.38;63.50
23307;BME280;11822;52.470;10.688;2022-10-31T05:32:29;101385.25;;;16.37;63.17
23307;BME280;11822;52.470;10.688;2022-10-31T05:34:54;101392.00;;;16.40;63.33
23307;BME280;11822;52.470;10.688;2022-10-31T05:37:20;101388.06;;;16.41;63.13
23307;BME280;11822;52.470;10.688;2022-10-31T05:39:45;101384.16;;;16.42;63.33
23307;BME280;11822;52.470;10.688;2022-10-31T05:42:10;101386.13;;;16.42;63.36
23307;BME280;11822;52.470;10.688;2022-10-31T05:44:35;101379.72;;;16.37;63.21
23307;BME280;11822;52.470;10.688;2022-10-31T05:47:00;101385.59;;;16.36;63.31
23307;BME280;11822;52.470;10.688;2022-10-31T05:49:25;101378.84;;;16.33;63.44
23307;BME280;11822;52.470;10.688;2022-10-31T05:51:51;101379.66;;;16.34;63.46
23307;BME280;11822;52.470;10.688;2022-10-31T05:54:16;101387.56;;;16.35;63.39
23307;BME280;11822;52.470;10.688;2022-10-31T05:56:41;101380.44;;;16.34;63.73
23307;BME280;11822;52.470;10.688;2022-10-31T05:59:06;101379.66;;;16.34;63.31
23307;BME280;11822;52.470;10.688;2022-10-31T06:01:31;101382.75;;;16.32;63.70
23307;BME280;11822;52.470;10.688;2022-10-31T06:03:56;101373.25;;;16.30;63.80
23307;BME280;11822;52.470;10.688;2022-10-31T06:06:22;101377.94;;;16.29;63.65
23307;BME280;11822;52.470;10.688;2022-10-31T06:08:47;101388.97;;;16.29;63.46
23307;BME280;11822;52.470;10.688;2022-10-31T06:11:12;101381.16;;;16.31;63.74
23307;BME280;11822;52.470;10.688;2022-10-31T06:13:37;101390.22;;;16.32;63.57
23307;BME280;11822;52.470;10.688;2022-10-31T06:16:02;101388.25;;;16.32;63.56
23307;BME280;11822;52.470;10.688;2022-10-31T06:18:28;101390.56;;;16.30;63.47
23307;BME280;11822;52.470;10.688;2022-10-31T06:20:53;101402.41;;;16.31;63.64
23307;BME280;11822;52.470;10.688;2022-10-31T06:23:18;101395.38;;;16.33;63.62
23307;BME280;11822;52.470;10.688;2022-10-31T06:25:44;101388.72;;;16.34;63.65
23307;BME280;11822;52.470;10.688;2022-10-31T06:28:12;101396.97;;;16.34;63.80
23307;BME280;11822;52.470;10.688;2022-10-31T06:30:38;101401.25;;;16.32;63.82
23307;BME280;11822;52.470;10.688;2022-10-31T06:33:03;101394.47;;;16.29;63.71
23307;BME280;11822;52.470;10.688;2022-10-31T06:35:29;101407.47;;;16.29;63.81
23307;BME280;11822;52.470;10.688;2022-10-31T06:37:54;101408.63;;;16.28;63.89
23307;BME280;11822;52.470;10.688;2022-10-31T06:40:20;101410.56;;;16.27;63.98
23307;BME280;11822;52.470;10.688;2022-10-31T06:42:45;101415.75;;;16.29;63.85
23307;BME280;11822;52.470;10.688;2022-10-31T06:45:10;101416.53;;;16.29;64.12
23307;BME280;11822;52.470;10.688;2022-10-31T06:47:35;101432.38;;;16.32;63.88
23307;BME280;11822;52.470;10.688;2022-10-31T06:50:01;101433.59;;;16.35;64.11
23307;BME280;11822;52.470;10.688;2022-10-31T06:52:26;101433.72;;;16.38;63.73
23307;BME280;11822;52.470;10.688;2022-10-31T06:54:51;101430.72;;;16.44;63.75
23307;BME280;11822;52.470;10.688;2022-10-31T06:57:16;101437.47;;;16.46;63.97
23307;BME280;11822;52.470;10.688;2022-10-31T06:59:41;101437.91;;;16.48;63.67
23307;BME280;11822;52.470;10.688;2022-10-31T07:02:08;101435.16;;;16.48;64.09
23307;BME280;11822;52.470;10.688;2022-10-31T07:04:34;101436.31;;;16.47;64.05
23307;BME280;11822;52.470;10.688;2022-10-31T07:06:59;101436.31;;;16.47;63.95
23307;BME280;11822;52.470;10.688;2022-10-31T07:09:24;101442.63;;;16.48;64.29
23307;BME280;11822;52.470;10.688;2022-10-31T07:11:51;101442.25;;;16.49;63.98
23307;BME280;11822;52.470;10.688;2022-10-31T07:14:16;101453.75;;;16.51;63.95
23307;BME280;11822;52.470;10.688;2022-10-31T07:16:41;101443.59;;;16.55;64.33
23307;BME280;11822;52.470;10.688;2022-10-31T07:19:06;101442.47;;;16.57;63.98
23307;BME280;11822;52.470;10.688;2022-10-31T07:21:32;101438.66;;;16.61;64.35
23307;BME280;11822;52.470;10.688;2022-10-31T07:23:57;101434.03;;;16.65;63.87
23307;BME280;11822;52.470;10.688;2022-10-31T07:26:22;101436.88;;;16.69;63.94
23307;BME280;11822;52.470;10.688;2022-10-31T07:28:47;101437.75;;;16.73;64.16
23307;BME280;11822;52.470;10.688;2022-10-31T07:31:13;101437.03;;;16.76;64.03
23307;BME280;11822;52.470;10.688;2022-10-31T07:33:38;101426.91;;;16.80;64.19
23307;BME280;11822;52.470;10.688;2022-10-31T07:36:03;101434.81;;;16.82;63.79
23307;BME280;11822;52.470;10.688;2022-10-31T07:38:28;101439.16;;;16.83;63.89
23307;BME280;11822;52.470;10.688;2022-10-31T07:40:54;101447.09;;;16.84;64.17
23307;BME280;11822;52.470;10.688;2022-10-31T07:43:19;101434.09;;;16.85;63.95
23307;BME280;11822;52.470;10.688;2022-10-31T07:45:48;101450.66;;;16.85;64.15
23307;BME280;11822;52.470;10.688;2022-10-31T07:48:13;101445.94;;;16.86;64.07
23307;BME280;11822;52.470;10.688;2022-10-31T07:50:38;101449.50;;;16.86;64.09
23307;BME280;11822;52.470;10.688;2022-10-31T07:53:08;101449.50;;;16.86;64.11
23307;BME280;11822;52.470;10.688;2022-10-31T07:55:34;101444.34;;;16.84;64.17
23307;BME280;11822;52.470;10.688;2022-10-31T07:58:00;101453.06;;;16.87;64.34
23307;BME280;11822;52.470;10.688;2022-10-31T08:00:26;101460.19;;;16.88;64.36
23307;BME280;11822;52.470;10.688;2022-10-31T08:03:01;101460.19;;;16.88;64.03
23307;BME280;11822;52.470;10.688;2022-10-31T08:05:26;101444.88;;;16.90;64.26
23307;BME280;11822;52.470;10.688;2022-10-31T08:07:52;101445.31;;;16.92;64.18
23307;BME280;11822;52.470;10.688;2022-10-31T08:10:17;101457.63;;;16.95;64.08
23307;BME280;11822;52.470;10.688;2022-10-31T08:12:42;101457.94;;;16.93;63.98
23307;BME280;11822;52.470;10.688;2022-10-31T08:15:08;101450.84;;;16.92;64.11
23307;BME280;11822;52.470;10.688;2022-10-31T08:17:36;101452.34;;;16.90;64.38
23307;BME280;11822;52.470;10.688;2022-10-31T08:20:02;101451.91;;;16.88;64.21
23307;BME280;11822;52.470;10.688;2022-10-31T08:22:28;101454.31;;;16.89;64.19
23307;BME280;11822;52.470;10.688;2022-10-31T08:24:53;101447.72;;;16.94;64.20
23307;BME280;11822;52.470;10.688;2022-10-31T08:27:18;101445.06;;;16.97;64.14
23307;BME280;11822;52.470;10.688;2022-10-31T08:29:43;101453.47;;;17.01;63.88
23307;BME280;11822;52.470;10.688;2022-10-31T08:32:08;101450.69;;;17.01;63.97
23307;BME280;11822;52.470;10.688;2022-10-31T08:34:33;101451.03;;;16.99;63.89
23307;BME280;11822;52.470;10.688;2022-10-31T08:36:59;101461.75;;;17.01;64.12
23307;BME280;11822;52.470;10.688;2022-10-31T08:39:24;101463.34;;;17.02;63.94
23307;BME280;11822;52.470;10.688;2022-10-31T08:41:49;101455.06;;;17.02;64.10
23307;BME280;11822;52.470;10.688;2022-10-31T08:44:15;101451.47;;;17.02;64.13
23307;BME280;11822;52.470;10.688;2022-10-31T08:46:40;101454.69;;;17.04;64.27
23307;BME280;11822;52.470;10.688;2022-10-31T08:49:05;101462.63;;;17.05;64.07
23307;BME280;11822;52.470;10.688;2022-10-31T08:51:31;101464.69;;;17.08;64.01
23307;BME280;11822;52.470;10.688;2022-10-31T08:53:56;101454.16;;;17.14;63.98
23307;BME280;11822;52.470;10.688;2022-10-31T08:56:21;101458.25;;;17.20;63.73
23307;BME280;11822;52.470;10.688;2022-10-31T08:58:47;101453.16;;;17.22;64.05
23307;BME280;11822;52.470;10.688;2022-10-31T09:01:12;101455.91;;;17.22;63.77
23307;BME280;11822;52.470;10.688;2022-10-31T09:03:37;101456.28;;;17.21;63.71
23307;BME280;11822;52.470;10.688;2022-10-31T09:06:03;101453.09;;;17.19;63.86
23307;BME280;11822;52.470;10.688;2022-10-31T09:08:31;101452.53;;;17.13;63.80
23307;BME280;11822;52.470;10.688;2022-10-31T09:10:57;101448.91;;;17.09;64.03
23307;BME280;11822;52.470;10.688;2022-10-31T09:13:22;101439.13;;;17.11;64.11
23307;BME280;11822;52.470;10.688;2022-10-31T09:15:48;101443.22;;;17.18;64.10
23307;BME280;11822;52.470;10.688;2022-10-31T09:18:14;101441.84;;;17.27;64.00
23307;BME280;11822;52.470;10.688;2022-10-31T09:20:40;101440.13;;;17.39;63.64
23307;BME280;11822;52.470;10.688;2022-10-31T09:23:08;101442.25;;;17.46;63.52
23307;BME280;11822;52.470;10.688;2022-10-31T09:25:34;101439.19;;;17.51;63.50
23307;BME280;11822;52.470;10.688;2022-10-31T09:28:00;101428.69;;;17.56;63.29
23307;BME280;11822;52.470;10.688;2022-10-31T09:30:29;101430.34;;;17.61;63.56
23307;BME280;11822;52.470;10.688;2022-10-31T09:32:55;101436.31;;;17.63;63.27
23307;BME280;11822;52.470;10.688;2022-10-31T09:35:21;101445.47;;;17.67;63.30
23307;BME280;11822;52.470;10.688;2022-10-31T09:37:46;101441.19;;;17.70;63.36
23307;BME280;11822;52.470;10.688;2022-10-31T09:40:11;101434.94;;;17.73;63.18
23307;BME280;11822;52.470;10.688;2022-10-31T09:42:58;101432.97;;;17.73;63.36
23307;BME280;11822;52.470;10.688;2022-10-31T09:45:32;101434.63;;;17.78;63.42
23307;BME280;11822;52.470;10.688;2022-10-31T09:48:10;101437.06;;;17.80;63.07
23307;BME280;11822;52.470;10.688;2022-10-31T09:50:43;101432.41;;;17.84;62.91
23307;BME280;11822;52.470;10.688;2022-10-31T09:55:47;101441.47;;;17.84;63.17
23307;BME280;11822;52.470;10.688;2022-10-31T09:58:26;101438.38;;;17.86;63.16
23307;BME280;11822;52.470;10.688;2022-10-31T10:00:52;101440.47;;;17.93;62.77
23307;BME280;11822;52.470;10.688;2022-10-31T10:03:23;101439.84;;;17.99;62.97
23307;BME280;11822;52.470;10.688;2022-10-31T10:05:57;101433.16;;;18.00;62.63
23307;BME280;11822;52.470;10.688;2022-10-31T10:08:26;101439.00;;;17.99;62.87
23307;BME280;11822;52.470;10.688;2022-10-31T10:11:03;101442.25;;;18.01;62.86
23307;BME280;11822;52.470;10.688;2022-10-31T10:18:39;101425.84;;;18.12;62.44
23307;BME280;11822;52.470;10.688;2022-10-31T10:26:20;101419.38;;;18.24;62.47
23307;BME280;11822;52.470;10.688;2022-10-31T10:28:51;101420.69;;;18.30;62.40
23307;BME280;11822;52.470;10.688;2022-10-31T10:31:20;101425.03;;;18.31;62.60
23307;BME280;11822;52.470;10.688;2022-10-31T10:36:36;101423.19;;;18.39;62.26
23307;BME280;11822;52.470;10.688;2022-10-31T10:39:25;101415.75;;;18.43;62.32
23307;BME280;11822;52.470;10.688;2022-10-31T10:41:49;101409.50;;;18.46;62.03
23307;BME280;11822;52.470;10.688;2022-10-31T10:44:33;101417.06;;;18.49;62.29
23307;BME280;11822;52.470;10.688;2022-10-31T10:47:17;101411.53;;;18.49;62.19
23307;BME280;11822;52.470;10.688;2022-10-31T10:50:02;101399.59;;;18.45;62.05
23307;BME280;11822;52.470;10.688;2022-10-31T10:57:35;101395.19;;;18.40;62.42
23307;BME280;11822;52.470;10.688;2022-10-31T11:00:14;101393.59;;;18.39;62.41
23307;BME280;11822;52.470;10.688;2022-10-31T11:02:41;101395.91;;;18.37;62.39
23307;BME280;11822;52.470;10.688;2022-10-31T11:05:09;101390.69;;;18.32;62.22
23307;BME280;11822;52.470;10.688;2022-10-31T11:07:38;101386.75;;;18.33;62.03
23307;BME280;11822;52.470;10.688;2022-10-31T11:10:05;101389.44;;;18.29;62.18
23307;BME280;11822;52.470;10.688;2022-10-31T11:12:38;101378.34;;;18.26;62.53
23307;BME280;11822;52.470;10.688;2022-10-31T11:15:20;101385.09;;;18.28;62.19
23307;BME280;11822;52.470;10.688;2022-10-31T11:17:47;101386.69;;;18.29;62.01
23307;BME280;11822;52.470;10.688;2022-10-31T11:22:39;101376.31;;;18.23;62.44
23307;BME280;11822;52.470;10.688;2022-10-31T11:25:23;101378.63;;;18.21;62.26
23307;BME280;11822;52.470;10.688;2022-10-31T11:27:59;101370.69;;;18.19;62.44
23307;BME280;11822;52.470;10.688;2022-10-31T11:30:24;101365.91;;;18.16;62.34
23307;BME280;11822;52.470;10.688;2022-10-31T11:32:50;101364.72;;;18.17;62.28
23307;BME280;11822;52.470;10.688;2022-10-31T11:35:17;101369.47;;;18.16;62.33
23307;BME280;11822;52.470;10.688;2022-10-31T11:37:44;101361.97;;;18.17;62.34
23307;BME280;11822;52.470;10.688;2022-10-31T11:40:20;101356.06;;;18.19;62.07
23307;BME280;11822;52.470;10.688;2022-10-31T11:42:45;101363.63;;;18.22;62.17
23307;BME280;11822;52.470;10.688;2022-10-31T11:45:16;101356.13;;;18.22;62.16
23307;BME280;11822;52.470;10.688;2022-10-31T11:47:42;101359.31;;;18.24;62.18
23307;BME280;11822;52.470;10.688;2022-10-31T11:50:09;101359.75;;;18.26;62.14
23307;BME280;11822;52.470;10.688;2022-10-31T11:52:36;101358.97;;;18.26;62.14
23307;BME280;11822;52.470;10.688;2022-10-31T11:57:49;101350.28;;;18.27;62.33
23307;BME280;11822;52.470;10.688;2022-10-31T12:00:32;101352.72;;;18.29;62.08
23307;BME280;11822;52.470;10.688;2022-10-31T12:03:10;101344.03;;;18.30;62.25
23307;BME280;11822;52.470;10.688;2022-10-31T12:05:37;101342.44;;;18.29;61.93
23307;BME280;11822;52.470;10.688;2022-10-31T12:08:04;101342.84;;;18.31;62.34
23307;BME280;11822;52.470;10.688;2022-10-31T12:10:42;101343.66;;;18.32;62.08
23307;BME280;11822;52.470;10.688;2022-10-31T12:15:47;101335.94;;;18.41;61.95
23307;BME280;11822;52.470;10.688;2022-10-31T12:18:24;101324.91;;;18.45;62.10
23307;BME280;11822;52.470;10.688;2022-10-31T12:23:27;101331.81;;;18.55;61.67
23307;BME280;11822;52.470;10.688;2022-10-31T12:40:45;101319.59;;;18.59;61.67
23307;BME280;11822;52.470;10.688;2022-10-31T12:43:22;101316.41;;;18.57;61.53
23307;BME280;11822;52.470;10.688;2022-10-31T12:48:36;101312.78;;;18.53;61.62
23307;BME280;11822;52.470;10.688;2022-10-31T12:56:14;101300.00;;;18.45;61.91
23307;BME280;11822;52.470;10.688;2022-10-31T12:58:53;101284.97;;;18.42;61.92
23307;BME280;11822;52.470;10.688;2022-10-31T13:01:21;101290.84;;;18.41;61.96
23307;BME280;11822;52.470;10.688;2022-10-31T13:03:51;101286.13;;;18.41;61.98
23307;BME280;11822;52.470;10.688;2022-10-31T13:06:19;101280.22;;;18.43;61.84
23307;BME280;11822;52.470;10.688;2022-10-31T13:08:49;101281.91;;;18.48;61.98
23307;BME280;11822;52.470;10.688;2022-10-31T13:11:15;101283.91;;;18.51;61.87
23307;BME280;11822;52.470;10.688;2022-10-31T13:13:45;101272.47;;;18.52;61.94
23307;BME280;11822;52.470;10.688;2022-10-31T13:16:16;101273.28;;;18.53;61.76
23307;BME280;11822;52.470;10.688;2022-10-31T13:18:49;101267.34;;;18.54;61.81
23307;BME280;11822;52.470;10.688;2022-10-31T13:21:18;101264.97;;;18.53;61.86
23307;BME280;11822;52.470;10.688;2022-10-31T13:23:44;101264.16;;;18.52;61.54
23307;BME280;11822;52.470;10.688;2022-10-31T13:26:15;101261.41;;;18.52;61.83
23307;BME280;11822;52.470;10.688;2022-10-31T13:28:45;101259.47;;;18.56;61.78
23307;BME280;11822;52.470;10.688;2022-10-31T13:31:11;101257.94;;;18.59;61.94
23307;BME280;11822;52.470;10.688;2022-10-31T13:33:45;101260.34;;;18.60;61.74
23307;BME280;11822;52.470;10.688;2022-10-31T13:36:14;101252.81;;;18.61;61.72
23307;BME280;11822;52.470;10.688;2022-10-31T13:38:54;101244.59;;;18.65;61.64
23307;BME280;11822;52.470;10.688;2022-10-31T13:41:33;101252.13;;;18.68;61.68
23307;BME280;11822;52.470;10.688;2022-10-31T13:46:46;101240.31;;;18.71;61.78
23307;BME280;11822;52.470;10.688;2022-10-31T13:49:24;101237.13;;;18.69;61.36
23307;BME280;11822;52.470;10.688;2022-10-31T13:51:49;101219.25;;;18.63;61.66
23307;BME280;11822;52.470;10.688;2022-10-31T13:54:29;101225.13;;;18.57;61.48
23307;BME280;11822;52.470;10.688;2022-10-31T13:56:56;101226.66;;;18.55;61.93
23307;BME280;11822;52.470;10.688;2022-10-31T13:59:22;101220.28;;;18.51;61.86
23307;BME280;11822;52.470;10.688;2022-10-31T14:04:17;101217.44;;;18.47;61.88
23307;BME280;11822;52.470;10.688;2022-10-31T14:06:45;101216.59;;;18.43;62.00